createdAt,value
2022-08-06T00:00:13.169Z,2.60
2022-08-06T00:02:44.303Z,2.50
2022-08-06T00:05:18.061Z,2.80
2022-08-06T00:08:01.868Z,2.80
2022-08-06T00:10:33.256Z,2.73
2022-08-06T00:13:06.707Z,2.63
2022-08-06T00:16:08.679Z,2.37
2022-08-06T00:18:37.174Z,2.13
2022-08-06T00:21:12.432Z,2.07
2022-08-06T00:23:59.477Z,2.10
2022-08-06T00:26:30.364Z,2.20
2022-08-06T00:29:01.316Z,2.30
2022-08-06T00:31:36.099Z,2.50
2022-08-06T00:34:11.849Z,2.40
2022-08-06T00:36:44.710Z,2.67
2022-08-06T00:39:19.519Z,2.20
2022-08-06T00:41:50.726Z,2.30
2022-08-06T00:44:30.610Z,3.00
2022-08-06T00:47:02.396Z,2.80
2022-08-06T00:49:48.930Z,1.80
2022-08-06T00:52:21.216Z,2.20
2022-08-06T00:54:52.581Z,1.83
2022-08-06T00:57:26.879Z,3.20
2022-08-06T01:00:01.547Z,2.37
2022-08-06T01:02:33.486Z,2.00
2022-08-06T01:05:33.626Z,2.20
2022-08-06T01:07:56.646Z,1.70
2022-08-06T01:10:42.270Z,2.10
2022-08-06T01:13:25.659Z,1.90
2022-08-06T01:16:29.450Z,1.90
2022-08-06T01:19:50.614Z,2.10
2022-08-06T01:22:56.309Z,2.00
2022-08-06T01:26:19.998Z,1.90
2022-08-06T01:28:55.984Z,2.20
2022-08-06T01:31:46.085Z,2.17
2022-08-06T01:34:34.924Z,1.97
2022-08-06T01:37:38.405Z,1.60
2022-08-06T01:40:23.753Z,1.93
2022-08-06T01:42:58.918Z,1.90
2022-08-06T01:45:52.704Z,1.57
2022-08-06T01:48:28.621Z,2.10
2022-08-06T01:51:03.848Z,2.00
2022-08-06T01:54:02.623Z,1.77
2022-08-06T01:56:57.140Z,2.07
2022-08-06T01:59:36.889Z,1.70
2022-08-06T02:02:18.480Z,1.90
2022-08-06T02:04:53.726Z,1.60
2022-08-06T02:08:39.281Z,1.87
2022-08-06T02:10:23.813Z,2.10
2022-08-06T02:12:56.080Z,1.87
2022-08-06T02:15:56.566Z,1.70
2022-08-06T02:18:34.224Z,1.57
2022-08-06T02:21:31.987Z,1.77
2022-08-06T02:24:07.850Z,1.80
2022-08-06T02:26:41.453Z,1.60
2022-08-06T02:29:17.884Z,1.73
2022-08-06T02:31:50.604Z,1.80
2022-08-06T02:34:27.106Z,1.70
2022-08-06T02:38:01.547Z,1.80
2022-08-06T02:40:39.992Z,2.00
2022-08-06T02:43:21.407Z,2.50
2022-08-06T02:46:15.097Z,1.63
2022-08-06T02:49:01.078Z,1.93
2022-08-06T02:52:10.649Z,2.00
2022-08-06T02:54:46.409Z,2.43
2022-08-06T02:57:37.876Z,2.53
2022-08-06T03:00:29.340Z,1.80
2022-08-06T03:03:03.820Z,2.10
2022-08-06T03:05:54.499Z,2.20
2022-08-06T03:08:29.554Z,1.80
2022-08-06T03:11:02.979Z,1.70
2022-08-06T03:13:36.500Z,1.70
2022-08-06T03:16:23.172Z,2.07
2022-08-06T03:19:55.655Z,1.97
2022-08-06T03:21:57.299Z,2.40
2022-08-06T03:24:29.500Z,1.60
2022-08-06T03:27:02.522Z,1.87
2022-08-06T03:29:35.327Z,1.97
2022-08-06T03:32:13.482Z,1.67
2022-08-06T03:34:57.579Z,1.50
2022-08-06T03:37:59.604Z,1.93
2022-08-06T03:40:21.004Z,2.00
2022-08-06T03:42:53.374Z,1.70
2022-08-06T03:45:45.593Z,2.10
2022-08-06T03:48:32.701Z,2.40
2022-08-06T03:51:13.632Z,2.10
2022-08-06T03:53:49.982Z,1.87
2022-08-06T03:56:29.881Z,1.80
2022-08-06T03:59:05.006Z,2.00
2022-08-06T04:01:43.066Z,1.80
2022-08-06T04:04:26.745Z,2.13
2022-08-06T04:07:00.629Z,2.00
2022-08-06T04:09:58.498Z,2.20
2022-08-06T04:12:58.791Z,2.13
2022-08-06T04:15:17.440Z,2.60
2022-08-06T04:17:50.328Z,1.90
2022-08-06T04:20:41.742Z,2.07
2022-08-06T04:23:15.666Z,2.20
2022-08-06T04:26:14.777Z,2.20
2022-08-06T04:28:53.250Z,2.13
2022-08-06T04:32:13.320Z,2.10
2022-08-06T04:34:27.318Z,2.20
2022-08-06T04:37:02.024Z,2.30
2022-08-06T04:39:38.456Z,2.53
2022-08-06T04:42:21.101Z,2.30
2022-08-06T04:44:59.977Z,2.20
2022-08-06T04:47:42.180Z,2.17
2022-08-06T04:50:23.892Z,2.23
2022-08-06T04:53:07.802Z,1.87
2022-08-06T04:55:39.613Z,2.10
2022-08-06T04:58:14.663Z,2.30
2022-08-06T05:01:01.052Z,2.00
2022-08-06T05:04:05.929Z,2.40
2022-08-06T05:06:58.838Z,2.70
2022-08-06T05:09:42.185Z,2.27
2022-08-06T05:12:28.528Z,2.57
2022-08-06T05:15:31.504Z,1.93
2022-08-06T05:19:20.556Z,2.50
2022-08-06T05:21:12.282Z,2.30
2022-08-06T05:23:49.740Z,2.40
2022-08-06T05:26:26.401Z,2.20
2022-08-06T05:28:57.728Z,2.53
2022-08-06T05:31:41.007Z,2.40
2022-08-06T05:34:19.641Z,2.23
2022-08-06T05:36:51.821Z,2.30
2022-08-06T05:39:57.281Z,2.47
2022-08-06T05:42:14.943Z,2.43
2022-08-06T05:44:55.579Z,1.93
2022-08-06T05:47:47.707Z,2.30
2022-08-06T05:50:33.670Z,2.57
2022-08-06T05:53:12.202Z,2.47
2022-08-06T05:55:55.910Z,4.57
2022-08-06T05:58:54.687Z,2.40
2022-08-06T06:01:26.784Z,2.10
2022-08-06T06:03:58.923Z,2.53
2022-08-06T06:06:31.469Z,2.50
2022-08-06T06:09:02.835Z,1.90
2022-08-06T06:11:54.675Z,2.33
2022-08-06T06:14:43.082Z,2.40
2022-08-06T06:17:39.611Z,2.67
2022-08-06T06:21:03.993Z,2.60
2022-08-06T06:23:46.012Z,2.50
2022-08-06T06:26:35.084Z,2.40
2022-08-06T06:30:05.553Z,2.20
2022-08-06T06:32:56.576Z,2.83
2022-08-06T06:35:57.547Z,2.87
2022-08-06T06:38:56.517Z,2.67
2022-08-06T06:41:53.304Z,3.00
2022-08-06T06:46:04.542Z,2.10
2022-08-06T06:48:11.019Z,2.47
2022-08-06T06:50:48.482Z,2.67
2022-08-06T06:53:23.895Z,2.27
2022-08-06T06:56:02.633Z,2.40
2022-08-06T06:58:47.329Z,2.53
2022-08-06T07:01:28.184Z,2.40
2022-08-06T07:04:05.710Z,2.50
2022-08-06T07:06:44.222Z,2.37
2022-08-06T07:09:41.666Z,2.57
2022-08-06T07:12:20.034Z,2.40
2022-08-06T07:15:00.930Z,2.30
2022-08-06T07:17:45.237Z,2.50
2022-08-06T07:20:30.178Z,2.60
2022-08-06T07:24:07.057Z,2.60
2022-08-06T07:26:00.500Z,2.50
2022-08-06T07:28:32.143Z,2.40
2022-08-06T07:31:07.012Z,2.80
2022-08-06T07:34:00.817Z,3.50
2022-08-06T07:36:56.920Z,2.33
2022-08-06T07:39:35.515Z,3.30
2022-08-06T07:42:16.476Z,3.07
2022-08-06T07:44:58.332Z,1.90
2022-08-06T07:47:54.683Z,2.30
2022-08-06T07:50:28.702Z,3.07
2022-08-06T07:53:00.914Z,2.47
2022-08-06T07:55:40.735Z,2.40
2022-08-06T07:58:16.453Z,2.40
2022-08-06T08:00:50.992Z,2.43
2022-08-06T08:03:57.019Z,2.43
2022-08-06T08:06:36.172Z,2.40
2022-08-06T08:09:19.890Z,2.53
2022-08-06T08:12:25.808Z,2.30
2022-08-06T08:14:53.583Z,2.60
2022-08-06T08:17:34.626Z,2.70
2022-08-06T08:20:11.326Z,2.80
2022-08-06T08:22:50.472Z,3.13
2022-08-06T08:25:40.536Z,3.30
2022-08-06T08:28:16.769Z,3.40
2022-08-06T08:30:49.855Z,2.13
2022-08-06T08:33:21.759Z,2.57
2022-08-06T08:36:00.738Z,2.77
2022-08-06T08:38:34.926Z,2.60
2022-08-06T08:41:48.912Z,2.43
2022-08-06T08:44:26.608Z,2.57
2022-08-06T08:47:00.293Z,2.87
2022-08-06T08:49:47.016Z,2.37
2022-08-06T08:52:23.454Z,2.60
2022-08-06T08:54:59.661Z,2.70
2022-08-06T08:58:37.616Z,2.87
2022-08-06T09:00:26.819Z,2.57
2022-08-06T09:03:00.084Z,2.50
2022-08-06T09:05:34.531Z,2.33
2022-08-06T09:08:06.959Z,2.30
2022-08-06T09:10:52.103Z,2.43
2022-08-06T09:13:50.746Z,2.20
2022-08-06T09:16:31.998Z,3.10
2022-08-06T09:19:06.285Z,2.40
2022-08-06T09:21:43.475Z,2.70
2022-08-06T09:24:15.182Z,2.80
2022-08-06T09:27:47.277Z,2.50
2022-08-06T09:30:25.342Z,2.40
2022-08-06T09:33:03.943Z,2.83
2022-08-06T09:35:44.156Z,2.40
2022-08-06T09:38:18.066Z,2.43
2022-08-06T09:41:14.940Z,3.43
2022-08-06T09:44:04.072Z,2.60
2022-08-06T09:46:48.975Z,2.53
2022-08-06T09:49:47.567Z,2.20
2022-08-06T09:52:20.131Z,2.60
2022-08-06T09:54:54.049Z,2.93
2022-08-06T09:57:29.172Z,2.30
2022-08-06T10:00:14.495Z,2.77
2022-08-06T10:02:51.694Z,2.20
2022-08-06T10:05:25.374Z,2.63
2022-08-06T10:08:14.507Z,2.47
2022-08-06T10:10:52.278Z,2.47
2022-08-06T10:13:39.265Z,2.90
2022-08-06T10:16:31.009Z,2.10
2022-08-06T10:19:18.210Z,2.53
2022-08-06T10:21:50.868Z,2.70
2022-08-06T10:24:25.944Z,2.60
2022-08-06T10:27:19.076Z,2.23
2022-08-06T10:29:55.663Z,2.50
2022-08-06T10:32:50.101Z,1.80
2022-08-06T10:35:25.554Z,2.97
2022-08-06T10:38:14.625Z,2.10
2022-08-06T10:40:57.286Z,2.30
2022-08-06T10:43:34.480Z,2.40
2022-08-06T10:46:11.565Z,2.20
2022-08-06T10:48:58.742Z,2.27
2022-08-06T10:51:56.741Z,1.90
2022-08-06T10:54:28.689Z,2.37
2022-08-06T10:57:01.766Z,2.47
2022-08-06T10:59:41.304Z,2.23
2022-08-06T11:02:36.833Z,2.43
2022-08-06T11:05:25.417Z,2.53
2022-08-06T11:08:49.286Z,2.87
2022-08-06T11:12:35.544Z,2.43
2022-08-06T11:15:08.822Z,2.70
2022-08-06T11:18:07.797Z,2.90
2022-08-06T11:20:49.152Z,2.40
2022-08-06T11:23:52.946Z,2.20
2022-08-06T11:26:13.490Z,2.33
2022-08-06T11:28:50.708Z,2.30
2022-08-06T11:31:43.388Z,2.93
2022-08-06T11:34:51.078Z,2.23
2022-08-06T11:38:00.165Z,2.47
2022-08-06T11:41:06.090Z,2.50
2022-08-06T11:44:02.904Z,2.10
2022-08-06T11:46:47.936Z,2.90
2022-08-06T11:49:24.701Z,2.43
2022-08-06T11:52:06.899Z,2.70
2022-08-06T11:55:01.106Z,2.50
2022-08-06T11:57:41.565Z,2.50
2022-08-06T12:00:23.609Z,2.10
2022-08-06T12:02:56.871Z,2.00
2022-08-06T12:05:28.181Z,1.90
2022-08-06T12:08:42.546Z,2.63
2022-08-06T12:11:35.932Z,2.33
2022-08-06T12:14:54.781Z,2.43
2022-08-06T12:17:31.402Z,2.50
2022-08-06T12:20:35.934Z,2.30
2022-08-06T12:23:17.523Z,1.97
2022-08-06T12:25:54.801Z,2.47
2022-08-06T12:28:26.679Z,2.40
2022-08-06T12:30:57.539Z,2.20
2022-08-06T12:33:28.452Z,1.90
2022-08-06T12:36:02.098Z,2.20
2022-08-06T12:38:35.725Z,2.07
2022-08-06T12:41:10.961Z,1.80
2022-08-06T12:43:56.674Z,2.10
2022-08-06T12:46:29.135Z,2.00
2022-08-06T12:49:03.632Z,2.00
2022-08-06T12:51:35.125Z,1.80
2022-08-06T12:54:08.538Z,2.70
2022-08-06T12:56:41.094Z,1.80
2022-08-06T12:59:23.617Z,2.07
2022-08-06T13:02:10.545Z,1.70
2022-08-06T13:04:49.786Z,1.70
2022-08-06T13:07:21.299Z,1.53
2022-08-06T13:10:32.918Z,1.53
2022-08-06T13:14:02.217Z,1.83
2022-08-06T13:15:48.075Z,2.07
2022-08-06T13:18:40.581Z,1.63
2022-08-06T13:21:22.136Z,2.03
2022-08-06T13:23:54.171Z,1.70
2022-08-06T13:26:31.065Z,2.00
2022-08-06T13:30:35.360Z,1.70
2022-08-06T13:32:32.172Z,1.90
2022-08-06T13:35:16.760Z,1.50
2022-08-06T13:37:56.903Z,2.03
2022-08-06T13:40:57.166Z,2.00
2022-08-06T13:43:53.386Z,1.73
2022-08-06T13:46:32.932Z,1.90
2022-08-06T13:49:04.607Z,2.00
2022-08-06T13:51:48.984Z,1.53
2022-08-06T13:54:26.362Z,1.80
2022-08-06T13:57:00.025Z,1.57
2022-08-06T13:59:40.551Z,1.97
2022-08-06T14:02:13.878Z,1.60
2022-08-06T14:04:50.652Z,1.80
2022-08-06T14:07:22.131Z,1.57
2022-08-06T14:10:08.770Z,1.73
2022-08-06T14:12:41.053Z,1.70
2022-08-06T14:15:15.268Z,1.70
2022-08-06T14:17:46.298Z,1.77
2022-08-06T14:20:23.786Z,1.50
2022-08-06T14:22:57.083Z,1.47
2022-08-06T14:25:46.484Z,1.70
2022-08-06T14:28:21.375Z,1.70
2022-08-06T14:30:52.661Z,1.50
2022-08-06T14:33:38.416Z,1.50
2022-08-06T14:36:09.677Z,1.60
2022-08-06T14:38:42.462Z,1.30
2022-08-06T14:41:49.883Z,1.53
2022-08-06T14:44:40.937Z,1.50
2022-08-06T14:47:19.892Z,1.20
2022-08-06T14:50:06.936Z,1.60
2022-08-06T14:52:38.852Z,1.63
2022-08-06T14:55:10.843Z,1.47
2022-08-06T14:58:04.759Z,1.20
2022-08-06T15:00:37.975Z,1.10
2022-08-06T15:03:13.709Z,1.10
2022-08-06T15:06:04.742Z,2.97
2022-08-06T15:08:37.600Z,1.17
2022-08-06T15:11:19.839Z,1.53
2022-08-06T15:13:53.963Z,1.47
2022-08-06T15:16:47.269Z,1.20
2022-08-06T15:19:20.423Z,1.60
2022-08-06T15:22:00.856Z,1.77
2022-08-06T15:24:33.720Z,1.33
2022-08-06T15:27:09.059Z,1.57
2022-08-06T15:29:40.224Z,1.40
2022-08-06T15:32:17.866Z,1.37
2022-08-06T15:34:51.295Z,1.27
2022-08-06T15:37:56.453Z,1.30
2022-08-06T15:40:13.537Z,1.37
2022-08-06T15:42:45.089Z,1.20
2022-08-06T15:45:49.824Z,1.20
2022-08-06T15:48:07.315Z,1.17
2022-08-06T15:50:59.538Z,1.33
2022-08-06T15:53:38.408Z,1.60
2022-08-06T15:56:14.326Z,1.10
2022-08-06T15:58:48.639Z,1.50
2022-08-06T16:01:33.681Z,1.20
2022-08-06T16:04:06.873Z,1.50
2022-08-06T16:06:37.762Z,1.47
2022-08-06T16:09:12.183Z,1.33
2022-08-06T16:11:50.981Z,1.13
2022-08-06T16:14:33.690Z,1.03
2022-08-06T16:17:09.548Z,1.40
2022-08-06T16:19:49.314Z,1.07
2022-08-06T16:22:22.038Z,1.17
2022-08-06T16:24:53.054Z,1.23
2022-08-06T16:27:27.254Z,1.40
2022-08-06T16:30:10.631Z,1.83
2022-08-06T16:32:41.649Z,1.40
2022-08-06T16:35:21.882Z,1.20
2022-08-06T16:37:55.334Z,1.30
2022-08-06T16:40:27.263Z,1.20
2022-08-06T16:42:58.368Z,1.20
2022-08-06T16:45:37.092Z,1.10
2022-08-06T16:48:22.337Z,1.23
2022-08-06T16:51:02.314Z,1.30
2022-08-06T16:54:13.429Z,1.10
2022-08-06T16:56:25.637Z,1.17
2022-08-06T16:58:56.721Z,1.10
2022-08-06T17:02:14.230Z,1.20
2022-08-06T17:04:21.601Z,1.10
2022-08-06T17:06:58.615Z,0.90
2022-08-06T17:09:29.656Z,1.00
2022-08-06T17:12:19.342Z,1.03
2022-08-06T17:17:41.910Z,1.27
2022-08-06T17:20:19.455Z,1.13
2022-08-06T17:22:53.313Z,1.20
2022-08-06T17:25:24.304Z,1.20
2022-08-06T17:28:15.763Z,0.90
2022-08-06T17:30:52.193Z,1.10
2022-08-06T17:33:23.378Z,1.03
2022-08-06T17:38:45.215Z,0.77
2022-08-06T17:41:16.752Z,1.00
2022-08-06T17:43:54.850Z,1.03
2022-08-06T17:46:33.607Z,1.00
2022-08-06T17:49:07.752Z,1.07
2022-08-06T17:51:38.744Z,1.43
2022-08-06T17:54:44.154Z,1.10
2022-08-06T17:57:01.836Z,1.07
2022-08-06T17:59:33.151Z,0.90
2022-08-06T18:02:04.182Z,1.20
2022-08-06T18:04:40.301Z,0.93
2022-08-06T18:08:06.969Z,1.03
2022-08-06T18:10:28.583Z,1.00
2022-08-06T18:13:02.760Z,1.00
2022-08-06T18:15:40.909Z,1.10
2022-08-06T18:18:21.328Z,0.90
2022-08-06T18:20:53.109Z,1.07
2022-08-06T18:23:24.354Z,1.00
2022-08-06T18:25:59.858Z,1.00
2022-08-06T18:28:49.749Z,0.90
2022-08-06T18:31:22.203Z,0.83
2022-08-06T18:33:53.763Z,0.70
2022-08-06T18:36:32.700Z,0.90
2022-08-06T18:39:13.454Z,1.10
2022-08-06T18:41:57.155Z,1.33
2022-08-06T18:44:29.011Z,1.10
2022-08-06T18:47:03.746Z,1.30
2022-08-06T18:49:50.959Z,1.10
2022-08-06T18:52:25.606Z,0.90
2022-08-06T18:54:59.382Z,1.07
2022-08-06T18:57:37.915Z,0.80
2022-08-06T19:00:33.345Z,1.20
2022-08-06T19:03:11.133Z,1.20
2022-08-06T19:05:50.545Z,1.00
2022-08-06T19:08:29.308Z,1.23
2022-08-06T19:11:05.987Z,1.13
2022-08-06T19:14:16.800Z,1.13
2022-08-06T19:16:30.415Z,1.53
2022-08-06T19:19:01.409Z,1.30
2022-08-06T19:21:33.185Z,1.20
2022-08-06T19:24:06.736Z,1.10
2022-08-06T19:26:38.208Z,1.87
2022-08-06T19:29:11.566Z,1.30
2022-08-06T19:31:56.062Z,1.20
2022-08-06T19:34:28.078Z,1.70
2022-08-06T19:37:03.702Z,1.60
2022-08-06T19:39:53.825Z,1.80
2022-08-06T19:42:32.569Z,1.70
2022-08-06T19:45:16.802Z,2.00
2022-08-06T19:47:49.055Z,1.47
2022-08-06T19:50:20.387Z,1.70
2022-08-06T19:52:53.202Z,2.00
2022-08-06T19:56:09.025Z,1.53
2022-08-06T19:58:26.544Z,1.40
2022-08-06T20:01:31.864Z,1.20
2022-08-06T20:04:01.766Z,1.63
2022-08-06T20:06:54.655Z,1.80
2022-08-06T20:09:41.871Z,1.60
2022-08-06T20:12:19.756Z,1.73
2022-08-06T20:14:50.686Z,2.00
2022-08-06T20:17:21.788Z,1.87
2022-08-06T20:20:05.300Z,1.83
2022-08-06T20:22:41.903Z,2.00
2022-08-06T20:25:18.452Z,1.33
2022-08-06T20:29:10.181Z,1.60
2022-08-06T20:30:52.696Z,1.43
2022-08-06T20:33:26.960Z,1.43
2022-08-06T20:36:00.755Z,1.30
2022-08-06T20:38:43.245Z,1.90
2022-08-06T20:41:58.682Z,1.60
2022-08-06T20:44:08.541Z,2.20
2022-08-06T20:47:01.108Z,2.33
2022-08-06T20:50:01.873Z,1.27
2022-08-06T20:52:25.070Z,1.60
2022-08-06T20:55:01.055Z,1.73
2022-08-06T20:57:37.348Z,1.67
2022-08-06T21:00:19.179Z,2.73
2022-08-06T21:03:27.922Z,1.83
2022-08-06T21:05:52.299Z,2.00
2022-08-06T21:08:26.074Z,2.10
2022-08-06T21:11:00.328Z,2.20
2022-08-06T21:13:36.262Z,2.20
2022-08-06T21:16:28.633Z,2.30
2022-08-06T21:19:07.013Z,1.93
2022-08-06T21:21:40.301Z,2.30
2022-08-06T21:24:12.699Z,2.03
2022-08-06T21:26:50.807Z,2.00
2022-08-06T21:30:07.905Z,1.90
2022-08-06T21:32:13.710Z,2.00
2022-08-06T21:35:03.921Z,2.37
2022-08-06T21:37:42.712Z,1.73
2022-08-06T21:40:26.359Z,2.20
2022-08-06T21:43:04.593Z,2.70
2022-08-06T21:45:58.584Z,2.20
2022-08-06T21:48:30.163Z,1.90
2022-08-06T21:51:01.488Z,2.10
2022-08-06T21:53:49.419Z,2.00
2022-08-06T21:56:37.980Z,1.67
2022-08-06T21:59:15.177Z,1.90
2022-08-06T22:02:18.549Z,2.00
2022-08-06T22:04:51.865Z,2.10
2022-08-06T22:08:06.277Z,2.60
2022-08-06T22:10:31.833Z,2.60
2022-08-06T22:13:12.712Z,2.50
2022-08-06T22:15:48.404Z,2.03
2022-08-06T22:18:28.941Z,2.63
2022-08-06T22:21:00.809Z,2.50
2022-08-06T22:23:34.543Z,2.27
2022-08-06T22:26:05.949Z,2.10
2022-08-06T22:28:41.188Z,1.83
2022-08-06T22:31:14.881Z,2.00
2022-08-06T22:34:01.181Z,1.93
2022-08-06T22:36:35.814Z,2.47
2022-08-06T22:39:07.943Z,2.03
2022-08-06T22:41:42.329Z,2.80
2022-08-06T22:44:34.294Z,2.33
2022-08-06T22:47:10.343Z,1.73
2022-08-06T22:50:00.724Z,2.30
2022-08-06T22:52:59.336Z,4.67
2022-08-06T22:55:24.991Z,1.80
2022-08-06T22:58:04.096Z,1.43
2022-08-06T23:00:57.967Z,2.00
2022-08-06T23:03:29.345Z,2.40
2022-08-06T23:06:01.682Z,2.53
2022-08-06T23:08:32.655Z,2.60
2022-08-06T23:11:04.707Z,3.00
2022-08-06T23:13:38.628Z,2.90
2022-08-06T23:16:20.745Z,3.07
2022-08-06T23:18:59.108Z,2.23
2022-08-06T23:21:50.324Z,2.67
2022-08-06T23:24:32.876Z,2.17
2022-08-06T23:27:17.201Z,2.80
2022-08-06T23:30:09.742Z,2.93
2022-08-06T23:32:40.800Z,2.73
2022-08-06T23:35:36.443Z,3.07
2022-08-06T23:38:30.949Z,2.90
2022-08-06T23:40:55.344Z,2.80
2022-08-06T23:43:34.643Z,2.60
2022-08-06T23:46:06.107Z,2.50
2022-08-06T23:48:37.091Z,2.20
2022-08-06T23:51:12.597Z,2.33
2022-08-06T23:54:05.928Z,2.33
2022-08-06T23:56:36.043Z,2.07
2022-08-06T23:59:12.625Z,2.53
